DW7873 Weather Reports


Display with metric or nautical units.
time (UTC)temp
F
wind
direction
speed
MPH
gust
MPH
rain 1hr
in
rain 24hr
in
rain mn
in
humidity
%
barometer
mb
20240303112017 44 309 1.0 4.0 0.00 0.98 0.08 94 1017.3
20240303111525 44 303 2.0 4.0 0.00 0.98 0.08 94 1017.3
20240303111019 44 309 0.0 4.0 0.00 0.98 0.08 94 1017.2
20240303110519 44 328 0.0 3.0 0.00 0.98 0.08 94 1017.2
20240303110020 45 0 0.0 3.0 0.00 0.98 0.08 94 1017.2
20240303105517 45 350 0.0 3.0 0.00 0.98 0.08 94 1017.3
20240303105017 45 0 1.0 3.0 0.00 0.98 0.08 94 1017.2
20240303104521 45 13 0.0 3.0 0.00 0.98 0.08 94 1017.1
20240303104020 45 355 0.0 3.0 0.00 0.98 0.08 94 1017.2
20240303103518 45 355 0.0 3.0 0.00 0.98 0.08 94 1017.3
20240303103021 45 329 1.0 3.0 0.00 0.98 0.08 94 1017.2
20240303102517 45 0 1.0 3.0 0.01 0.98 0.08 94 1017.2
20240303102017 45 333 1.0 3.0 0.01 0.98 0.08 94 1017.1
20240303101523 45 334 1.0 3.0 0.01 0.98 0.08 94 1017.2
20240303101017 45 355 1.0 3.0 0.01 0.98 0.08 94 1017.1
20240303100517 45 335 1.0 3.0 0.01 0.98 0.08 94 1017.1
20240303100018 45 342 1.0 3.0 0.01 0.98 0.08 94 1017.1
20240303095518 45 0 0.0 4.0 0.01 0.98 0.08 94 1017.1
20240303095017 45 46 0.0 4.0 0.01 0.98 0.08 94 1017.2
20240303094521 45 347 1.0 6.0 0.01 0.98 0.08 94 1017.2
20240303094017 45 0 0.0 6.0 0.01 0.98 0.08 94 1017.2
20240303093517 45 16 2.0 6.0 0.02 0.98 0.08 94 1017.2
20240303093017 45 5 1.0 5.0 0.01 0.97 0.07 94 1017.2
20240303092519 45 35 1.0 5.0 0.01 0.97 0.07 94 1017.2
20240303092017 45 14 1.0 4.0 0.01 0.97 0.07 94 1017.3
20240303091525 45 5 0.0 4.0 0.01 0.97 0.07 94 1017.3
20240303091017 45 40 1.0 4.0 0.01 0.97 0.07 94 1017.2
20240303090517 45 40 1.0 4.0 0.01 0.97 0.07 94 1017.2
20240303090017 46 0 0.0 4.0 0.01 0.97 0.07 94 1017.2
20240303085517 46 0 1.0 4.0 0.01 0.97 0.07 94 1017.2
20240303085018 46 5 0.0 3.0 0.01 0.97 0.07 94 1017.1
20240303084519 46 330 1.0 3.0 0.01 0.97 0.07 94 1017.0
20240303084018 46 5 0.0 3.0 0.01 0.96 0.06 94 1017.0
20240303083517 46 46 1.0 3.0 0.01 0.96 0.06 94 1017.0
20240303083019 46 9 1.0 3.0 0.01 0.96 0.06 94 1016.9
20240303082516 46 22 0.0 2.0 0.01 0.96 0.06 94 1016.9
20240303082017 46 0 0.0 2.0 0.01 0.96 0.06 94 1017.0
20240303081523 46 22 0.0 2.0 0.01 0.96 0.06 94 1016.9
20240303081017 46 60 0.0 3.0 0.02 0.96 0.06 94 1017.0
20240303080517 47 0 0.0 3.0 0.02 0.96 0.06 94 1016.9
20240303080025 46 63 0.0 3.0 0.02 0.96 0.06 94 1016.8
20240303075517 46 0 0.0 3.0 0.02 0.96 0.06 94 1016.9
20240303075016 46 40 0.0 3.0 0.02 0.96 0.06 94 1016.9
20240303074523 46 39 0.0 3.0 0.02 0.96 0.06 94 1017.0
20240303074017 46 0 0.0 3.0 0.01 0.95 0.05 94 1017.0
20240303073516 46 26 1.0 3.0 0.01 0.95 0.05 94 1017.2
20240303073028 46 50 0.0 3.0 0.02 0.95 0.05 94 1017.2
20240303072519 46 355 1.0 2.0 0.02 0.95 0.05 94 1017.3
20240303072019 46 0 0.0 3.0 0.02 0.95 0.05 94 1017.3
20240303071521 46 0 0.0 3.0 0.02 0.95 0.05 94 1017.3
20240303071021 46 0 1.0 3.0 0.01 0.94 0.04 94 1017.4
20240303070519 46 46 0.0 4.0 0.01 0.94 0.04 94 1017.5
20240303070024 46 71 1.0 4.0 0.02 0.94 0.04 94 1017.6
20240303065516 46 29 0.0 3.0 0.02 0.94 0.04 94 1017.6
20240303065018 46 23 1.0 3.0 0.02 0.94 0.04 94 1017.6
20240303064521 46 98 0.0 3.0 0.02 0.94 0.04 94 1017.8
20240303064020 46 66 1.0 4.0 0.02 0.94 0.04 94 1017.8
20240303063520 46 64 1.0 6.0 0.03 0.94 0.04 94 1017.9
20240303063031 46 85 1.0 6.0 0.02 0.93 0.03 94 1018.0
20240303062517 46 42 1.0 5.0 0.02 0.93 0.03 94 1018.1
20240303062016 47 100 1.0 3.0 0.02 0.93 0.03 94 1018.3
20240303061536 47 86 2.0 3.0 0.02 0.93 0.03 94 1018.4
20240303061017 47 76 0.0 3.0 0.02 0.93 0.03 94 1018.4
20240303060517 47 107 1.0 6.0 0.02 0.93 0.03 94 1018.5
20240303060031 47 0 1.0 6.0 0.02 0.92 0.02 94 1018.7
20240303055518 47 115 2.0 6.0 0.02 0.92 0.02 94 1018.8
20240303055020 47 86 2.0 7.0 0.02 0.92 0.02 94 1018.9
20240303054517 47 123 2.0 8.0 0.03 0.92 0.02 94 1019.0
20240303054017 47 77 3.0 8.0 0.03 0.92 0.02 94 1019.1
20240303053516 47 82 3.0 9.0 0.04 0.91 0.01 94 1019.2
20240303053021 47 86 3.0 9.0 0.08 0.91 0.01 94 1019.4
20240303052519 47 92 2.0 10.0 0.13 0.91 0.01 94 1019.5
20240303052016 47 138 3.0 10.0 0.15 0.91 0.01 94 1019.6
20240303051523 46 109 2.0 10.0 0.16 0.91 0.01 94 1019.7
20240303051020 46 88 3.0 9.0 0.17 0.91 0.01 94 1019.7
20240303050516 46 107 2.0 9.0 0.17 0.90 0.00 94 1019.8
20240303050024 46 113 2.0 9.0 0.18 0.90 0.00 94 1019.8
20240303045517 46 87 1.0 3.0 0.20 0.90 0.90 94 1019.9
20240303045017 46 95 1.0 3.0 0.22 0.90 0.90 94 1020.1
20240303044517 46 0 0.0 7.0 0.23 0.89 0.89 94 1020.1
20240303044017 46 68 1.0 11.0 0.23 0.88 0.88 94 1020.3
20240303043518 46 101 2.0 11.0 0.24 0.87 0.87 94 1020.3
20240303043018 46 67 2.0 10.0 0.20 0.81 0.81 94 1020.2
20240303042516 46 45 3.0 10.0 0.19 0.78 0.78 94 1020.3
20240303042016 46 130 2.0 8.0 0.19 0.76 0.76 94 1020.4
20240303041521 46 92 3.0 8.0 0.19 0.75 0.75 94 1020.5
20240303041018 46 127 2.0 8.0 0.19 0.74 0.74 94 1020.6
20240303040520 46 111 3.0 7.0 0.20 0.73 0.73 94 1020.7
20240303040020 46 86 2.0 9.0 0.19 0.71 0.71 94 1020.6
20240303035519 46 132 2.0 10.0 0.20 0.70 0.70 94 1020.7
20240303035018 46 100 2.0 10.0 0.20 0.68 0.68 94 1020.7
20240303034559 46 105 3.0 10.0 0.20 0.66 0.66 94 1021.0
20240303034019 46 81 3.0 11.0 0.22 0.65 0.65 94 1021.1
20240303033516 46 0 1.0 11.0 0.20 0.62 0.62 94 1021.3
20240303033022 45 96 2.0 6.0 0.20 0.61 0.61 94 1021.4
20240303032518 45 111 2.0 5.0 0.18 0.58 0.58 94 1021.6
20240303032017 45 83 1.0 5.0 0.17 0.57 0.57 94 1021.7
20240303031521 45 71 1.0 5.0 0.16 0.56 0.56 93 1022.0
20240303031017 45 67 1.0 5.0 0.16 0.55 0.55 93 1022.1
20240303030517 45 70 1.0 6.0 0.15 0.52 0.52 93 1022.1
20240303030017 44 69 1.0 7.0 0.15 0.52 0.52 93 1022.2
20240303025517 44 57 2.0 7.0 0.13 0.50 0.50 93 1022.3
20240303025017 44 35 1.0 4.0 0.10 0.47 0.47 93 1022.5
20240303024517 44 36 2.0 4.0 0.10 0.46 0.46 93 1022.6
20240303024018 44 71 1.0 4.0 0.07 0.42 0.42 93 1022.9
20240303023517 44 62 1.0 4.0 0.07 0.42 0.42 93 1022.9
20240303023021 44 48 1.0 4.0 0.07 0.41 0.41 93 1023.1
20240303022516 44 0 1.0 4.0 0.07 0.40 0.40 93 1023.1
20240303022016 44 69 1.0 4.0 0.07 0.40 0.40 93 1023.3
20240303021520 44 0 1.0 3.0 0.09 0.40 0.40 93 1023.4
20240303021019 44 0 0.0 6.0 0.09 0.39 0.39 93 1023.5
20240303020516 44 0 0.0 6.0 0.09 0.38 0.38 93 1023.7
20240303020019 44 46 0.0 3.0 0.10 0.37 0.37 93 1023.7
20240303015517 44 36 1.0 3.0 0.11 0.37 0.37 93 1023.8
20240303015018 44 74 1.0 3.0 0.12 0.37 0.37 92 1023.9
20240303014519 44 24 1.0 3.0 0.12 0.36 0.36 93 1024.0
20240303014019 44 75 0.0 3.0 0.12 0.35 0.35 93 1024.1
20240303013517 44 0 0.0 3.0 0.12 0.35 0.35 92 1024.2
20240303013018 44 42 0.0 3.0 0.12 0.34 0.34 92 1024.3
20240303012518 44 0 1.0 4.0 0.13 0.33 0.33 92 1024.4
20240303012015 44 0 1.0 4.0 0.14 0.32 0.32 92 1024.4
20240303011517 44 66 0.0 3.0 0.15 0.31 0.31 92 1024.7
20240303011017 44 71 1.0 3.0 0.14 0.29 0.29 92 1024.7
20240303010516 44 0 0.0 3.0 0.14 0.28 0.28 92 1024.7
20240303010036 44 0 0.0 4.0 0.13 0.27 0.27 92 1024.8
20240303005519 44 0 1.0 4.0 0.13 0.26 0.26 92 1024.8
20240303005016 44 0 0.0 3.0 0.12 0.25 0.25 92 1024.7
20240303004523 44 59 0.0 2.0 0.11 0.24 0.24 92 1024.8
20240303004015 44 46 0.0 2.0 0.11 0.23 0.23 92 1024.8
20240303003518 44 48 0.0 2.0 0.11 0.23 0.23 92 1024.8
20240303003018 44 28 0.0 2.0 0.10 0.21 0.21 92 1024.9
20240303002518 44 0 0.0 3.0 0.10 0.20 0.20 92 1025.0
20240303002017 44 0 0.0 3.0 0.08 0.18 0.18 92 1025.1
20240303001521 44 0 0.0 3.0 0.06 0.16 0.16 92 1025.2
20240303001018 44 0 1.0 3.0 0.06 0.15 0.15 92 1025.3
20240303000518 44 0 0.0 3.0 0.05 0.14 0.14 92 1025.3
20240303000020 44 0 0.0 3.0 0.06 0.14 0.14 91 1025.4
20240302235518 44 99 0.0 1.0 0.06 0.13 0.13 91 1025.5
20240302235015 44 99 0.0 2.0 0.06 0.13 0.13 91 1025.5
20240302234518 44 0 0.0 2.0 0.07 0.13 0.13 91 1025.5
20240302234017 44 0 0.0 2.0 0.06 0.12 0.12 91 1025.5
20240302233516 44 0 0.0 3.0 0.05 0.11 0.11 91 1025.5
20240302233037 44 0 0.0 3.0 0.06 0.11 0.11 91 1025.6
20240302232516 44 46 0.0 2.0 0.05 0.10 0.10 91 1025.7
20240302232016 43 0 0.0 2.0 0.05 0.10 0.10 91 1025.7
20240302231518 43 0 0.0 3.0 0.06 0.10 0.10 91 1025.7
20240302231015 44 0 1.0 3.0 0.05 0.09 0.09 91 1025.8
20240302230516 43 0 0.0 3.0 0.05 0.09 0.09 91 1025.8
20240302230017 43 76 0.0 3.0 0.04 0.08 0.08 90 1025.9
20240302225515 43 0 0.0 2.0 0.04 0.07 0.07 90 1025.9
20240302225022 43 0 0.0 3.0 0.03 0.06 0.06 90 1026.1
20240302224521 43 0 1.0 3.0 0.03 0.06 0.06 90 1026.0
20240302224018 43 0 0.0 2.0 0.03 0.06 0.06 90 1026.0
20240302223518 43 0 0.0 4.0 0.03 0.06 0.06 90 1026.1
20240302223018 43 0 0.0 4.0 0.02 0.05 0.05 90 1026.1
20240302222516 43 0 0.0 3.0 0.03 0.05 0.05 90 1026.1
20240302222017 43 53 0.0 4.0 0.03 0.05 0.05 90 1026.1
20240302221517 44 101 0.0 4.0 0.02 0.04 0.04 89 1026.2
20240302221017 43 66 1.0 4.0 0.02 0.04 0.04 89 1026.2
20240302220517 44 84 1.0 3.0 0.02 0.04 0.04 89 1026.2
20240302220019 44 0 1.0 3.0 0.02 0.03 0.03 89 1026.3
20240302215515 44 112 1.0 3.0 0.02 0.03 0.03 89 1026.2
20240302215017 44 59 0.0 4.0 0.02 0.03 0.03 88 1026.4
20240302214519 44 42 1.0 4.0 0.02 0.03 0.03 88 1026.4
20240302214017 44 0 1.0 4.0 0.03 0.03 0.03 88 1026.6
20240302213517 44 76 1.0 4.0 0.03 0.03 0.03 88 1026.5
20240302213019 44 85 0.0 3.0 0.03 0.03 0.03 87 1026.6
20240302212519 44 0 0.0 3.0 0.02 0.02 0.02 87 1026.8
20240302212016 44 0 1.0 3.0 0.02 0.02 0.02 87 1026.7
20240302211519 44 0 0.0 3.0 0.02 0.02 0.02 86 1026.7
20240302211020 44 64 0.0 3.0 0.02 0.02 0.02 86 1026.8
20240302210516 44 36 1.0 4.0 0.02 0.02 0.02 86 1026.8
20240302210018 44 81 0.0 4.0 0.01 0.01 0.01 85 1026.9
20240302205516 44 125 0.0 2.0 0.01 0.01 0.01 85 1027.0
20240302205016 44 0 0.0 3.0 0.01 0.01 0.01 85 1027.1
20240302204518 44 91 1.0 3.0 0.01 0.01 0.01 84 1027.1
20240302204018 45 79 1.0 3.0 0.00 0.00 0.00 83 1027.2
20240302203516 45 0 1.0 3.0 0.00 0.00 0.00 83 1027.3
20240302203018 45 78 0.0 3.0 0.00 0.00 0.00 83 1027.4
20240302202516 45 65 1.0 3.0 0.00 0.00 0.00 82 1027.6
20240302202017 45 0 0.0 3.0 0.00 0.00 0.00 82 1027.5
20240302201518 45 77 0.0 4.0 0.00 0.00 0.00 81 1027.8
20240302201016 45 80 1.0 4.0 0.00 0.00 0.00 80 1027.8
20240302200517 46 83 1.0 4.0 0.00 0.00 0.00 80 1027.8
20240302200016 46 125 2.0 4.0 0.00 0.00 0.00 79 1028.0
20240302195515 46 120 1.0 4.0 0.00 0.00 0.00 79 1027.9
20240302195017 47 124 1.0 4.0 0.00 0.00 0.00 78 1028.0
20240302194521 47 0 1.0 3.0 0.00 0.00 0.00 77 1028.0
20240302194017 47 0 1.0 3.0 0.00 0.00 0.00 76 1028.1
20240302193521 47 95 1.0 3.0 0.00 0.00 0.00 76 1028.1
20240302193021 47 153 1.0 3.0 0.00 0.00 0.00 75 1028.2
20240302192519 47 88 0.0 3.0 0.00 0.00 0.00 75 1028.2
20240302192017 46 131 1.0 3.0 0.00 0.00 0.00 75 1028.3
20240302191519 46 0 0.0 3.0 0.00 0.00 0.00 74 1028.3
20240302191022 46 0 0.0 3.0 0.00 0.00 0.00 74 1028.5
20240302190517 46 0 0.0 4.0 0.00 0.00 0.00 74 1028.3
20240302190021 46 104 1.0 4.0 0.00 0.00 0.00 74 1028.3
20240302185518 47 93 1.0 6.0 0.00 0.00 0.00 74 1028.4
20240302185019 47 118 1.0 6.0 0.00 0.00 0.00 74 1028.3
20240302184519 47 157 1.0 5.0 0.00 0.00 0.00 73 1028.4
20240302184018 47 173 0.0 4.0 0.00 0.00 0.00 73 1028.4
20240302183517 47 103 1.0 4.0 0.00 0.00 0.00 72 1028.5
20240302183017 47 117 2.0 4.0 0.00 0.00 0.00 72 1028.5
20240302182524 47 115 1.0 6.0 0.00 0.00 0.00 73 1028.4
20240302182020 47 121 3.0 6.0 0.00 0.00 0.00 73 1028.5
20240302181528 47 0 2.0 7.0 0.00 0.00 0.00 73 1028.5
20240302181018 47 178 2.0 7.0 0.00 0.00 0.00 72 1028.6
20240302180519 47 171 1.0 5.0 0.00 0.00 0.00 72 1028.7
20240302180020 47 186 2.0 5.0 0.00 0.00 0.00 72 1028.8
20240302175518 47 171 2.0 5.0 0.00 0.00 0.00 72 1028.9
20240302175018 46 154 1.0 4.0 0.00 0.00 0.00 73 1029.0
20240302174520 46 0 0.0 5.0 0.00 0.00 0.00 73 1029.0
20240302174018 46 0 2.0 5.0 0.00 0.00 0.00 73 1029.2
20240302173518 45 125 1.0 5.0 0.00 0.00 0.00 73 1029.4
20240302173019 45 165 2.0 6.0 0.00 0.00 0.00 73 1029.5
20240302172517 45 173 2.0 8.0 0.00 0.00 0.00 73 1029.6
20240302172020 45 178 3.0 9.0 0.00 0.00 0.00 73 1029.6
20240302171527 45 155 3.0 9.0 0.00 0.00 0.00 72 1029.8
20240302171018 45 177 2.0 7.0 0.00 0.00 0.00 73 1029.9
20240302170517 45 195 1.0 6.0 0.00 0.00 0.00 73 1029.8
20240302170022 45 188 1.0 6.0 0.00 0.00 0.00 72 1030.0
20240302165517 45 208 3.0 6.0 0.00 0.00 0.00 72 1029.9
20240302165017 45 0 1.0 5.0 0.00 0.00 0.00 72 1030.1
20240302164518 45 110 2.0 6.0 0.00 0.00 0.00 71 1030.2
20240302164018 45 119 2.0 6.0 0.00 0.00 0.00 71 1030.2
20240302163517 45 0 3.0 6.0 0.00 0.00 0.00 69 1030.2
20240302163029 45 178 2.0 6.0 0.00 0.00 0.00 68 1030.3
20240302162521 45 158 3.0 6.0 0.00 0.00 0.00 68 1030.3
20240302162017 45 177 2.0 6.0 0.00 0.00 0.00 68 1030.4
20240302161519 46 182 1.0 8.0 0.00 0.00 0.00 68 1030.4
20240302161018 45 190 3.0 8.0 0.00 0.00 0.00 68 1030.5
20240302160518 46 174 2.0 7.0 0.00 0.00 0.00 66 1030.4
20240302160024 46 231 2.0 5.0 0.00 0.00 0.00 66 1030.5
20240302155517 45 229 1.0 6.0 0.00 0.00 0.00 67 1030.5
20240302155019 45 225 2.0 6.0 0.00 0.00 0.00 68 1030.7
20240302154518 45 152 3.0 7.0 0.00 0.00 0.00 68 1030.7
20240302154017 45 143 1.0 7.0 0.00 0.00 0.00 68 1030.7
20240302153517 45 194 2.0 5.0 0.00 0.00 0.00 67 1030.8
20240302153024 45 192 1.0 7.0 0.00 0.00 0.00 67 1030.9
20240302152518 44 155 3.0 7.0 0.00 0.00 0.00 67 1031.0
20240302152044 45 205 3.0 7.0 0.00 0.00 0.00 66 1031.0
20240302151528 45 0 0.0 6.0 0.00 0.00 0.00 67 1030.7
20240302151018 44 176 1.0 10.0 0.00 0.00 0.00 69 1030.7
20240302150516 44 165 2.0 10.0 0.00 0.00 0.00 68 1030.9
20240302150017 44 234 3.0 10.0 0.00 0.00 0.00 68 1031.0
20240302145516 44 193 3.0 8.0 0.00 0.00 0.00 68 1031.2
20240302145017 44 198 1.0 8.0 0.00 0.00 0.00 68 1031.2
20240302144527 43 225 2.0 9.0 0.00 0.00 0.00 68 1031.3
20240302144018 43 161 3.0 9.0 0.00 0.00 0.00 67 1031.3
20240302143517 43 153 2.0 6.0 0.00 0.00 0.00 68 1031.5
20240302143020 43 173 2.0 6.0 0.00 0.00 0.00 69 1031.6
20240302142515 42 208 1.0 6.0 0.00 0.00 0.00 69 1031.6
20240302142018 42 192 2.0 6.0 0.00 0.00 0.00 69 1031.5
20240302141517 41 148 1.0 6.0 0.00 0.00 0.00 70 1031.6
20240302141015 41 159 2.0 6.0 0.00 0.00 0.00 70 1031.5
20240302140515 41 156 1.0 5.0 0.00 0.00 0.00 71 1031.6
20240302140019 40 181 0.0 5.0 0.00 0.00 0.00 72 1031.7
20240302135515 40 183 0.0 5.0 0.00 0.00 0.00 72 1031.9
20240302135015 39 235 2.0 5.0 0.00 0.00 0.00 73 1031.9
20240302134518 39 170 0.0 5.0 0.00 0.00 0.00 73 1031.9
20240302134015 39 183 1.0 5.0 0.00 0.00 0.00 73 1031.9
20240302133515 39 126 1.0 5.0 0.00 0.00 0.00 73 1032.0
20240302133019 39 0 1.0 5.0 0.00 0.00 0.00 73 1032.1
20240302132517 38 182 1.0 5.0 0.00 0.00 0.00 74 1032.0
20240302132016 38 0 0.0 5.0 0.00 0.00 0.00 74 1032.1
20240302131516 38 183 2.0 5.0 0.00 0.00 0.00 74 1032.1
20240302131015 37 182 2.0 5.0 0.00 0.00 0.00 74 1032.0
20240302130514 37 160 0.0 4.0 0.00 0.00 0.00 74 1032.1
20240302130019 37 0 0.0 4.0 0.00 0.00 0.00 74 1032.2
20240302125518 37 0 1.0 4.0 0.00 0.00 0.00 74 1032.2
20240302125021 37 205 1.0 4.0 0.00 0.00 0.00 74 1032.1
20240302124527 37 0 0.0 2.0 0.00 0.00 0.00 74 1032.3
20240302124017 36 205 0.0 1.0 0.00 0.00 0.00 74 1032.3
20240302123517 36 0 0.0 4.0 0.00 0.00 0.00 74 1032.3
20240302123016 36 215 0.0 4.0 0.00 0.00 0.00 74 1032.4
20240302122517 36 0 1.0 4.0 0.00 0.00 0.00 74 1032.3
20240302122018 36 131 0.0 4.0 0.00 0.00 0.00 74 1032.4
20240302121530 36 0 1.0 4.0 0.00 0.00 0.00 73 1032.4
20240302121019 36 232 0.0 5.0 0.00 0.00 0.00 73 1032.4
20240302120519 36 0 1.0 6.0 0.00 0.00 0.00 73 1032.3
20240302120019 36 169 1.0 6.0 0.00 0.00 0.00 72 1032.4
20240302115522 36 215 2.0 5.0 0.00 0.00 0.00 71 1032.3
20240302115019 36 0 0.0 5.0 0.00 0.00 0.00 71 1032.2
20240302114531 36 203 1.0 6.0 0.00 0.00 0.00 70 1032.2
20240302114017 36 174 0.0 6.0 0.00 0.00 0.00 69 1032.4
20240302113520 36 164 2.0 5.0 0.00 0.00 0.00 69 1032.3
20240302113018 36 167 1.0 7.0 0.00 0.00 0.00 69 1032.4
20240302112523 36 202 2.0 7.0 0.00 0.00 0.00 69 1032.4